Time;durP1;ratioP1;P1;durP2;ratioP2;P2;SDS_P1;SDS_P2;PMS_P1;PMS_P2;Temp;Humidity;BMP_temperature;BMP_pressure;BME280_temperature;BME280_humidity;BME280_pressure;Samples;Min_cycle;Max_cycle;Signal;HPM_P1;HPM_P2
2023/12/29 00:00:27;;;;;;;;;;;;;;;8.00;86.25;100468.72;5020747;28;19925;-82
2023/12/29 00:02:54;;;;;;;;;;;;;;;7.98;86.33;100474.81;5020002;28;19936;-82
2023/12/29 00:05:21;;;;;;;;;;;;;;;8.01;86.68;100467.84;5009064;28;20285;-83
2023/12/29 00:07:48;;;;;;;;;;;;;;;8.00;86.56;100462.66;5020520;28;19925;-82
2023/12/29 00:10:15;;;;;;;;;;;;;;;8.00;86.48;100453.03;5022372;28;19925;-83
2023/12/29 00:12:42;;;;;;;;;;;;;;;7.99;86.57;100446.09;5025613;28;19984;-83
2023/12/29 00:15:09;;;;;;;;;;;;;;;8.01;86.45;100460.03;5018654;28;19976;-83
2023/12/29 00:17:37;;;;;;;;;;;;;;;8.04;86.38;100458.25;5027350;28;20001;-83
2023/12/29 00:20:04;;;;;;;;;;;;;;;8.10;85.76;100464.34;5028674;28;20355;-85
2023/12/29 00:22:31;;;;;;;;;;;;;;;8.10;85.70;100453.03;5036596;28;19925;-84
2023/12/29 00:24:58;;;;;;;;;;;;;;;8.09;85.57;100451.28;5023291;28;19932;-84
2023/12/29 00:27:25;;;;;;;;;;;;;;;8.09;85.30;100456.50;5020990;28;19925;-82
2023/12/29 00:29:52;;;;;;;;;;;;;;;8.14;85.13;100444.25;5024666;28;20019;-83
2023/12/29 00:32:19;;;;;;;;;;;;;;;8.20;84.39;100441.66;5028144;28;19970;-82
2023/12/29 00:34:45;;;;;;;;;;;;;;;8.10;85.27;100432.97;5026150;28;19935;-84
2023/12/29 00:37:12;;;;;;;;;;;;;;;8.10;85.18;100442.56;5025198;28;19925;-85
2023/12/29 00:39:39;;;;;;;;;;;;;;;8.06;85.40;100449.53;5025485;28;19972;-83
2023/12/29 00:42:07;;;;;;;;;;;;;;;8.04;85.28;100453.03;5024741;28;19925;-83
2023/12/29 00:44:34;;;;;;;;;;;;;;;8.05;85.43;100436.47;5019004;28;19929;-85
2023/12/29 00:47:00;;;;;;;;;;;;;;;8.04;85.11;100433.00;5026517;28;19925;-84
2023/12/29 00:49:27;;;;;;;;;;;;;;;8.00;85.44;100442.59;5027166;28;19971;-83
2023/12/29 00:51:54;;;;;;;;;;;;;;;8.04;85.21;100433.00;5026599;28;19925;-84
2023/12/29 00:54:21;;;;;;;;;;;;;;;8.06;85.24;100436.47;5026417;28;19981;-82
2023/12/29 00:56:51;;;;;;;;;;;;;;;8.11;84.84;100439.94;5024040;28;19929;-84
2023/12/29 00:59:18;;;;;;;;;;;;;;;8.08;84.87;100444.31;5000563;28;19933;-87
2023/12/29 01:01:45;;;;;;;;;;;;;;;8.06;84.83;100448.69;5025977;28;20026;-83
2023/12/29 01:04:12;;;;;;;;;;;;;;;8.07;84.97;100442.59;5020475;28;19929;-83
2023/12/29 01:06:39;;;;;;;;;;;;;;;7.98;85.35;100444.34;5025766;28;20380;-83
2023/12/29 01:09:08;;;;;;;;;;;;;;;8.00;85.06;100442.59;5025843;28;19925;-84
2023/12/29 01:11:35;;;;;;;;;;;;;;;7.97;85.42;100426.06;5025224;28;19953;-83
2023/12/29 01:14:02;;;;;;;;;;;;;;;7.96;85.19;100419.09;5026590;28;19932;-84
2023/12/29 01:16:29;;;;;;;;;;;;;;;7.95;84.79;100422.59;5027380;28;20028;-82
2023/12/29 01:18:56;;;;;;;;;;;;;;;7.93;84.94;100419.97;5017256;28;19968;-83
2023/12/29 01:21:23;;;;;;;;;;;;;;;7.96;84.63;100427.81;5027682;28;19933;-84
2023/12/29 01:23:49;;;;;;;;;;;;;;;7.94;84.63;100421.72;5007359;28;19929;-83
2023/12/29 01:26:16;;;;;;;;;;;;;;;7.99;84.28;100419.09;5030554;28;19925;-83
2023/12/29 01:28:43;;;;;;;;;;;;;;;8.10;83.74;100437.34;5027543;28;19936;-83
2023/12/29 01:31:12;;;;;;;;;;;;;;;8.00;83.82;100421.69;5026895;28;19935;-83
2023/12/29 01:33:39;;;;;;;;;;;;;;;8.00;83.74;100431.28;5024494;28;19968;-83
2023/12/29 01:36:06;;;;;;;;;;;;;;;7.98;83.82;100426.06;5026841;28;19969;-83
2023/12/29 01:38:43;;;;;;;;;;;;;;;8.12;83.42;100414.66;5007115;28;20027;-85
2023/12/29 01:41:09;;;;;;;;;;;;;;;8.11;83.10;100423.38;5029275;28;19925;-84
2023/12/29 01:43:36;;;;;;;;;;;;;;;8.11;82.71;100416.41;5025366;28;19933;-83
2023/12/29 01:46:03;;;;;;;;;;;;;;;7.96;83.46;100411.25;5038305;28;19931;-84
2023/12/29 01:48:30;;;;;;;;;;;;;;;7.97;83.34;100408.63;5030896;28;19925;-83
2023/12/29 01:50:57;;;;;;;;;;;;;;;8.08;82.36;100405.09;5011768;28;19925;-82
2023/12/29 01:53:23;;;;;;;;;;;;;;;8.09;82.36;100409.47;5006937;28;19975;-83
2023/12/29 01:56:05;;;;;;;;;;;;;;;8.06;82.59;100412.94;5004132;28;19948;-86
2023/12/29 01:58:32;;;;;;;;;;;;;;;8.08;82.50;100412.94;5008347;28;19989;-84
2023/12/29 02:00:59;;;;;;;;;;;;;;;8.13;81.78;100411.19;5015960;28;19925;-83
2023/12/29 02:03:26;;;;;;;;;;;;;;;8.06;82.32;100399.88;5028525;28;19932;-84
2023/12/29 02:05:54;;;;;;;;;;;;;;;8.03;81.98;100393.81;5008901;28;19937;-83
2023/12/29 02:08:24;;;;;;;;;;;;;;;7.98;82.38;100392.09;5012978;28;20394;-85
2023/12/29 02:10:51;;;;;;;;;;;;;;;7.88;82.98;100387.78;5016066;28;20028;-82
2023/12/29 02:13:18;;;;;;;;;;;;;;;7.87;82.46;100386.03;5023816;28;20027;-84
2023/12/29 02:15:45;;;;;;;;;;;;;;;7.96;82.30;100391.22;5034270;28;19924;-82
2023/12/29 02:18:14;;;;;;;;;;;;;;;7.88;82.77;100384.28;5011552;28;19929;-83
2023/12/29 02:20:42;;;;;;;;;;;;;;;7.76;82.81;100380.00;5026310;28;19929;-83
2023/12/29 02:23:09;;;;;;;;;;;;;;;7.79;82.25;100382.59;5030199;28;19972;-83
2023/12/29 02:25:36;;;;;;;;;;;;;;;7.89;80.72;100386.88;5032852;28;19948;-85
2023/12/29 02:28:02;;;;;;;;;;;;;;;7.90;80.75;100386.03;5025849;28;20403;-83
2023/12/29 02:30:39;;;;;;;;;;;;;;;7.83;80.65;100377.38;5026275;28;20015;-84
2023/12/29 02:33:08;;;;;;;;;;;;;;;8.05;77.72;100389.44;5025439;28;19931;-87
2023/12/29 02:35:36;;;;;;;;;;;;;;;8.08;76.45;100376.34;5017380;28;19940;-82
2023/12/29 02:38:03;;;;;;;;;;;;;;;8.16;75.51;100379.78;5006622;28;19933;-84
2023/12/29 02:40:29;;;;;;;;;;;;;;;8.19;74.73;100393.69;5008838;28;19974;-82
2023/12/29 02:42:56;;;;;;;;;;;;;;;8.44;72.68;100392.69;5027559;28;19925;-82
2023/12/29 02:45:24;;;;;;;;;;;;;;;8.21;76.11;100388.47;5014157;28;19929;-83
2023/12/29 02:47:51;;;;;;;;;;;;;;;7.97;77.83;100386.88;5021176;28;19998;-84
2023/12/29 02:50:17;;;;;;;;;;;;;;;7.96;76.62;100379.91;5026481;28;19925;-83
2023/12/29 02:52:44;;;;;;;;;;;;;;;8.26;73.63;100376.25;5008019;28;19980;-85
2023/12/29 02:55:11;;;;;;;;;;;;;;;8.25;73.49;100392.78;5027773;28;20004;-82
2023/12/29 02:57:38;;;;;;;;;;;;;;;8.18;74.24;100388.47;5021251;28;19925;-82
2023/12/29 03:00:06;;;;;;;;;;;;;;;7.99;75.52;100383.38;5026840;28;19926;-88
2023/12/29 03:02:32;;;;;;;;;;;;;;;8.63;70.98;100368.16;5021140;28;20002;-89
2023/12/29 03:04:59;;;;;;;;;;;;;;;8.43;72.22;100380.47;5025943;28;20368;-83
2023/12/29 03:07:26;;;;;;;;;;;;;;;8.19;73.44;100391.09;5030982;28;19932;-83
2023/12/29 03:09:53;;;;;;;;;;;;;;;8.26;72.85;100381.47;5012896;28;19929;-82
2023/12/29 03:12:19;;;;;;;;;;;;;;;8.42;72.24;100384.00;5016441;28;19925;-83
2023/12/29 03:14:49;;;;;;;;;;;;;;;8.50;71.99;100371.75;5010105;28;20348;-83
2023/12/29 03:17:16;;;;;;;;;;;;;;;8.35;72.84;100376.16;5012249;28;19968;-84
2023/12/29 03:19:43;;;;;;;;;;;;;;;8.25;73.40;100374.50;5021882;28;19936;-84
2023/12/29 03:22:10;;;;;;;;;;;;;;;8.24;73.70;100372.78;5028109;28;19981;-84
2023/12/29 03:24:37;;;;;;;;;;;;;;;8.17;74.27;100384.16;5020391;28;19943;-84
2023/12/29 03:27:04;;;;;;;;;;;;;;;8.06;75.14;100380.72;5022788;28;19933;-84
2023/12/29 03:29:30;;;;;;;;;;;;;;;8.16;74.67;100387.63;5032364;28;19967;-85
2023/12/29 03:31:57;;;;;;;;;;;;;;;8.26;74.23;100378.84;5031264;28;19925;-84
2023/12/29 03:34:24;;;;;;;;;;;;;;;8.38;73.70;100384.88;4997418;28;19935;-84
2023/12/29 03:36:51;;;;;;;;;;;;;;;8.31;74.28;100374.47;5029467;28;19932;-83
2023/12/29 03:39:18;;;;;;;;;;;;;;;8.32;74.32;100370.97;5025207;28;19925;-84
2023/12/29 03:41:45;;;;;;;;;;;;;;;8.25;74.82;100376.25;5030083;28;19988;-83
2023/12/29 03:44:11;;;;;;;;;;;;;;;8.23;75.63;100385.88;5024047;28;19932;-86
2023/12/29 03:46:39;;;;;;;;;;;;;;;8.34;74.97;100384.03;5024614;28;19932;-84
2023/12/29 03:49:05;;;;;;;;;;;;;;;8.22;75.68;100378.88;5027624;28;19925;-86
2023/12/29 03:51:33;;;;;;;;;;;;;;;8.31;74.53;100387.56;5019664;28;19925;-84
2023/12/29 03:53:59;;;;;;;;;;;;;;;8.42;73.07;100381.38;5018039;28;19926;-83
2023/12/29 03:56:26;;;;;;;;;;;;;;;8.73;71.14;100381.16;5022517;28;19932;-84
2023/12/29 03:58:53;;;;;;;;;;;;;;;8.62;71.70;100378.66;5033118;28;20416;-84
2023/12/29 04:01:19;;;;;;;;;;;;;;;8.47;72.39;100374.38;5030806;28;19925;-85
2023/12/29 04:03:46;;;;;;;;;;;;;;;8.30;73.37;100372.72;5032293;28;19960;-83
2023/12/29 04:06:13;;;;;;;;;;;;;;;8.32;73.48;100376.19;5036690;28;19932;-84
2023/12/29 04:08:40;;;;;;;;;;;;;;;8.18;74.56;100376.31;5036215;28;19925;-86
2023/12/29 04:11:07;;;;;;;;;;;;;;;8.11;74.86;100381.56;5032321;28;19926;-84
2023/12/29 04:13:33;;;;;;;;;;;;;;;8.26;74.33;100376.25;5027818;28;19930;-84
2023/12/29 04:16:00;;;;;;;;;;;;;;;8.20;75.12;100386.75;5025490;28;19929;-84
2023/12/29 04:18:28;;;;;;;;;;;;;;;8.00;76.75;100372.03;5014178;28;19952;-84
2023/12/29 04:20:55;;;;;;;;;;;;;;;7.96;77.49;100372.06;5029058;28;19933;-84
2023/12/29 04:23:21;;;;;;;;;;;;;;;7.87;78.13;100366.91;5022428;28;19932;-84
2023/12/29 04:25:48;;;;;;;;;;;;;;;8.05;77.01;100376.38;5027731;28;20415;-84
2023/12/29 04:28:15;;;;;;;;;;;;;;;8.00;77.23;100369.41;5033538;28;19932;-84
2023/12/29 04:30:41;;;;;;;;;;;;;;;7.92;77.58;100360.78;5039063;28;20015;-84
2023/12/29 04:33:08;;;;;;;;;;;;;;;7.84;78.24;100373.00;5027581;28;19925;-84
2023/12/29 04:35:35;;;;;;;;;;;;;;;7.82;78.66;100364.28;5023520;28;19932;-84
2023/12/29 04:38:02;;;;;;;;;;;;;;;7.77;79.00;100366.06;5024514;28;19926;-84
2023/12/29 04:40:28;;;;;;;;;;;;;;;7.75;79.13;100367.81;5032859;28;19951;-84
2023/12/29 04:42:55;;;;;;;;;;;;;;;7.69;79.47;100360.88;5031540;28;19925;-84
2023/12/29 04:45:22;;;;;;;;;;;;;;;7.69;79.41;100355.66;5026431;28;19925;-84
2023/12/29 04:47:49;;;;;;;;;;;;;;;7.73;79.51;100356.50;5026435;28;19964;-84
2023/12/29 04:50:16;;;;;;;;;;;;;;;7.65;79.66;100352.19;5027255;28;19932;-84
2023/12/29 04:52:42;;;;;;;;;;;;;;;7.57;80.26;100346.13;5034372;28;19925;-84
2023/12/29 04:55:09;;;;;;;;;;;;;;;7.52;80.82;100360.94;5027341;28;19926;-84
2023/12/29 04:57:36;;;;;;;;;;;;;;;7.35;81.11;100362.75;5030749;28;20304;-84
2023/12/29 05:00:04;;;;;;;;;;;;;;;7.47;80.59;100357.47;5034556;28;19925;-84
2023/12/29 05:02:31;;;;;;;;;;;;;;;7.48;80.22;100359.22;5034866;28;19925;-83
2023/12/29 05:04:57;;;;;;;;;;;;;;;7.53;79.72;100356.59;5018323;28;19925;-84
2023/12/29 05:07:24;;;;;;;;;;;;;;;7.44;80.23;100352.25;5035795;28;19929;-84
2023/12/29 05:09:50;;;;;;;;;;;;;;;7.44;80.68;100352.25;5030069;28;19987;-83
2023/12/29 05:12:17;;;;;;;;;;;;;;;7.29;81.30;100343.59;5032794;28;19932;-84
2023/12/29 05:14:44;;;;;;;;;;;;;;;7.28;81.40;100336.63;5032043;28;20000;-84
2023/12/29 05:17:11;;;;;;;;;;;;;;;7.35;81.17;100334.88;5034825;28;19925;-84
2023/12/29 05:19:37;;;;;;;;;;;;;;;7.40;80.57;100340.97;5036220;28;19983;-84
2023/12/29 05:22:04;;;;;;;;;;;;;;;7.34;81.03;100340.13;5039698;28;20138;-85
2023/12/29 05:24:31;;;;;;;;;;;;;;;7.43;80.47;100346.19;5032424;28;19925;-84
2023/12/29 05:26:58;;;;;;;;;;;;;;;7.41;80.57;100342.69;5034416;28;19990;-85
2023/12/29 05:29:24;;;;;;;;;;;;;;;7.38;80.88;100341.84;5017538;28;20016;-84
2023/12/29 05:31:51;;;;;;;;;;;;;;;7.48;81.44;100346.16;5036980;28;19925;-84
2023/12/29 05:34:18;;;;;;;;;;;;;;;7.48;82.01;100346.16;5022698;28;19934;-84
2023/12/29 05:36:45;;;;;;;;;;;;;;;7.56;81.52;100343.50;5030799;28;19936;-84
2023/12/29 05:39:15;;;;;;;;;;;;;;;7.55;81.91;100347.03;5032159;28;19925;-83
2023/12/29 05:41:42;;;;;;;;;;;;;;;7.53;82.22;100341.81;5005025;28;19926;-84
2023/12/29 05:44:09;;;;;;;;;;;;;;;7.51;82.45;100343.53;5032871;28;19943;-85
2023/12/29 05:46:36;;;;;;;;;;;;;;;7.57;82.32;100345.25;5033131;28;20028;-84
2023/12/29 05:49:03;;;;;;;;;;;;;;;7.63;81.49;100346.13;5015791;28;19925;-83
2023/12/29 05:51:30;;;;;;;;;;;;;;;7.65;81.14;100340.88;5033750;28;20439;-84
2023/12/29 05:53:56;;;;;;;;;;;;;;;7.71;80.46;100345.22;5026393;28;19925;-82
2023/12/29 05:56:23;;;;;;;;;;;;;;;7.68;80.70;100345.22;5028088;28;19967;-86
2023/12/29 05:58:51;;;;;;;;;;;;;;;7.68;80.99;100355.69;5028400;28;19965;-84
2023/12/29 06:01:19;;;;;;;;;;;;;;;7.77;80.50;100353.00;5032176;28;19925;-83
2023/12/29 06:03:46;;;;;;;;;;;;;;;7.79;80.52;100356.47;5037411;28;19925;-85
2023/12/29 06:06:13;;;;;;;;;;;;;;;7.94;78.87;100359.00;5027653;28;19931;-86
2023/12/29 06:08:40;;;;;;;;;;;;;;;7.89;79.39;100354.69;5027447;28;19984;-83
2023/12/29 06:11:07;;;;;;;;;;;;;;;7.78;79.89;100352.13;5027976;28;19925;-84
2023/12/29 06:13:34;;;;;;;;;;;;;;;7.84;79.79;100357.31;5021757;28;20016;-84
2023/12/29 06:16:01;;;;;;;;;;;;;;;7.89;79.68;100359.91;5009197;28;19996;-83
2023/12/29 06:18:27;;;;;;;;;;;;;;;7.95;79.12;100360.75;5037885;28;19925;-83
2023/12/29 06:20:55;;;;;;;;;;;;;;;7.92;79.10;100365.13;5033830;28;19984;-83
2023/12/29 06:23:21;;;;;;;;;;;;;;;7.85;79.39;100364.28;5028962;28;19971;-84
2023/12/29 06:25:48;;;;;;;;;;;;;;;7.85;79.05;100369.53;5024446;28;19932;-83
2023/12/29 06:28:15;;;;;;;;;;;;;;;7.98;77.82;100365.97;5030250;28;19925;-84
2023/12/29 06:30:42;;;;;;;;;;;;;;;7.98;77.63;100358.13;5025538;28;19925;-84
2023/12/29 06:33:09;;;;;;;;;;;;;;;7.92;78.23;100363.38;5019412;28;19933;-85
2023/12/29 06:35:35;;;;;;;;;;;;;;;7.89;78.36;100355.53;5028025;28;19940;-84
2023/12/29 06:38:02;;;;;;;;;;;;;;;8.08;76.21;100355.44;5036416;28;19925;-84
2023/12/29 06:40:29;;;;;;;;;;;;;;;8.47;73.14;100359.56;5022252;28;19968;-83
2023/12/29 06:42:56;;;;;;;;;;;;;;;8.52;72.70;100363.00;5010516;28;19988;-84
2023/12/29 06:45:23;;;;;;;;;;;;;;;8.36;73.94;100356.13;5013855;28;19976;-83
2023/12/29 06:47:49;;;;;;;;;;;;;;;8.61;71.90;100356.84;5031273;28;19932;-85
2023/12/29 06:50:16;;;;;;;;;;;;;;;8.79;70.61;100349.69;5014936;28;19939;-82
2023/12/29 06:52:43;;;;;;;;;;;;;;;8.70;71.14;100359.38;5019420;28;19925;-82
2023/12/29 06:55:09;;;;;;;;;;;;;;;8.68;71.22;100353.28;5024805;28;19926;-84
2023/12/29 06:57:37;;;;;;;;;;;;;;;8.66;71.35;100344.59;5022811;28;19934;-84
2023/12/29 07:00:04;;;;;;;;;;;;;;;8.56;72.39;100348.16;5028094;28;20438;-84
2023/12/29 07:02:31;;;;;;;;;;;;;;;8.39;73.92;100347.41;5030208;28;19967;-84
2023/12/29 07:04:57;;;;;;;;;;;;;;;8.82;70.45;100336.59;5008786;28;19932;-86
2023/12/29 07:07:24;;;;;;;;;;;;;;;8.63;72.15;100331.53;5018506;28;19933;-85
2023/12/29 07:09:51;;;;;;;;;;;;;;;8.62;71.59;100345.50;5003202;28;19929;-85
2023/12/29 07:12:18;;;;;;;;;;;;;;;8.61;71.62;100348.97;5027358;28;19925;-84
2023/12/29 07:14:44;;;;;;;;;;;;;;;8.58;71.73;100351.63;5019954;28;19925;-84
2023/12/29 07:17:11;;;;;;;;;;;;;;;8.57;71.75;100349.88;5031457;28;19971;-84
2023/12/29 07:19:38;;;;;;;;;;;;;;;8.48;72.84;100344.75;5029595;28;19929;-85
2023/12/29 07:22:05;;;;;;;;;;;;;;;8.67;71.20;100346.31;5027937;28;19925;-85
2023/12/29 07:24:32;;;;;;;;;;;;;;;8.59;71.92;100342.03;5021403;28;19929;-84
2023/12/29 07:26:59;;;;;;;;;;;;;;;8.55;72.37;100342.97;5022609;28;19933;-84
2023/12/29 07:29:26;;;;;;;;;;;;;;;8.52;72.80;100338.59;5032266;28;19933;-84
2023/12/29 07:31:53;;;;;;;;;;;;;;;8.48;73.24;100334.28;5024660;28;19925;-84
2023/12/29 07:34:20;;;;;;;;;;;;;;;8.45;73.62;100340.41;5012010;28;19925;-85
2023/12/29 07:36:47;;;;;;;;;;;;;;;8.42;73.83;100344.75;5021692;28;19932;-84
2023/12/29 07:39:15;;;;;;;;;;;;;;;8.49;72.98;100343.88;5028962;28;20064;-84
2023/12/29 07:41:42;;;;;;;;;;;;;;;8.54;72.91;100342.06;5024202;28;19933;-84
2023/12/29 07:44:14;;;;;;;;;;;;;;;8.55;72.94;100341.19;5021852;28;19932;-85
2023/12/29 07:46:41;;;;;;;;;;;;;;;8.61;72.55;100350.75;5028195;28;19925;-85
2023/12/29 07:49:08;;;;;;;;;;;;;;;8.56;72.94;100342.06;4999179;28;19933;-86
2023/12/29 07:51:38;;;;;;;;;;;;;;;8.66;72.31;100344.59;5024645;28;19926;-88
2023/12/29 07:54:05;;;;;;;;;;;;;;;8.63;72.42;100344.63;5033025;28;19925;-85
2023/12/29 07:56:32;;;;;;;;;;;;;;;8.55;73.41;100335.97;5023776;28;20336;-86
2023/12/29 07:58:58;;;;;;;;;;;;;;;8.48;74.09;100344.75;5032310;28;19925;-86
2023/12/29 08:01:26;;;;;;;;;;;;;;;8.45;74.42;100343.00;5016842;28;20403;-85
2023/12/29 08:03:53;;;;;;;;;;;;;;;8.61;73.17;100351.59;5022252;28;19925;-87
2023/12/29 08:06:20;;;;;;;;;;;;;;;8.63;73.73;100352.47;5027997;28;19980;-87
2023/12/29 08:08:47;;;;;;;;;;;;;;;8.76;73.07;100365.44;5026544;28;19929;-86
2023/12/29 08:11:15;;;;;;;;;;;;;;;8.69;73.67;100354.16;5026988;28;19925;-86
2023/12/29 08:13:43;;;;;;;;;;;;;;;8.63;74.44;100348.97;5013044;28;19932;-85
2023/12/29 08:16:10;;;;;;;;;;;;;;;8.68;74.16;100353.28;5000304;28;19953;-86
2023/12/29 08:18:36;;;;;;;;;;;;;;;8.69;74.17;100348.94;5023225;28;19925;-83
2023/12/29 08:21:03;;;;;;;;;;;;;;;8.78;74.02;100359.31;5028778;28;19937;-83
2023/12/29 08:23:30;;;;;;;;;;;;;;;8.77;74.23;100351.47;5024594;28;19932;-82
2023/12/29 08:25:58;;;;;;;;;;;;;;;8.84;73.92;100346.16;5021590;28;19936;-83
2023/12/29 08:28:24;;;;;;;;;;;;;;;8.94;73.45;100354.81;5028269;28;19980;-83
2023/12/29 08:30:52;;;;;;;;;;;;;;;8.97;73.32;100362.63;5028282;28;19925;-83
2023/12/29 08:33:19;;;;;;;;;;;;;;;9.04;72.51;100361.69;5028161;28;19929;-83
2023/12/29 08:35:46;;;;;;;;;;;;;;;9.17;71.78;100361.56;5017657;28;19925;-83
2023/12/29 08:38:12;;;;;;;;;;;;;;;9.21;71.39;100364.13;5025339;28;19932;-83
2023/12/29 08:40:40;;;;;;;;;;;;;;;9.16;72.20;100359.81;5030202;28;20012;-84
2023/12/29 08:43:07;;;;;;;;;;;;;;;9.20;72.00;100361.53;5029187;28;19925;-87
2023/12/29 08:45:34;;;;;;;;;;;;;;;9.25;71.51;100357.09;5024722;28;19925;-82
2023/12/29 08:48:01;;;;;;;;;;;;;;;9.28;71.40;100364.06;5030759;28;20015;-82
2023/12/29 08:50:28;;;;;;;;;;;;;;;9.39;70.42;100368.28;5027719;28;19929;-84
2023/12/29 08:52:55;;;;;;;;;;;;;;;9.42;70.25;100358.69;5028605;28;19932;-82
2023/12/29 08:55:21;;;;;;;;;;;;;;;9.39;70.89;100373.53;5034195;28;19936;-84
2023/12/29 08:57:48;;;;;;;;;;;;;;;9.40;70.74;100370.03;5022681;28;19932;-85
2023/12/29 09:00:15;;;;;;;;;;;;;;;9.38;71.02;100355.22;5029280;28;19984;-84
2023/12/29 09:02:41;;;;;;;;;;;;;;;9.60;68.97;100363.66;5031630;28;19926;-83
2023/12/29 09:05:08;;;;;;;;;;;;;;;9.46;70.37;100368.19;5023239;28;20012;-84
2023/12/29 09:07:35;;;;;;;;;;;;;;;9.49;70.79;100363.81;5007771;28;19925;-84
2023/12/29 09:10:03;;;;;;;;;;;;;;;9.44;71.44;100364.75;5023841;28;19976;-85
2023/12/29 09:12:29;;;;;;;;;;;;;;;9.51;70.40;100361.16;5028459;28;19976;-85
2023/12/29 09:14:56;;;;;;;;;;;;;;;9.54;70.66;100362.03;5026992;28;19932;-84
2023/12/29 09:17:23;;;;;;;;;;;;;;;9.54;70.70;100371.59;5024827;28;19933;-84
2023/12/29 09:19:49;;;;;;;;;;;;;;;9.57;70.57;100361.09;5030633;28;19925;-83
2023/12/29 09:22:29;;;;;;;;;;;;;;;9.59;70.41;100367.19;5030198;28;19925;-84
2023/12/29 09:24:55;;;;;;;;;;;;;;;9.63;70.25;100354.91;5036514;28;19928;-82
2023/12/29 09:27:22;;;;;;;;;;;;;;;9.75;69.57;100360.88;5027063;28;19929;-85
2023/12/29 09:29:49;;;;;;;;;;;;;;;9.84;68.46;100359.03;5026568;28;20012;-84
2023/12/29 09:32:16;;;;;;;;;;;;;;;9.82;69.37;100358.16;5026934;28;19932;-83
2023/12/29 09:34:43;;;;;;;;;;;;;;;9.81;69.54;100353.81;5030437;28;19932;-84
2023/12/29 09:37:10;;;;;;;;;;;;;;;9.79;68.87;100359.09;5003768;28;19957;-84
2023/12/29 09:39:36;;;;;;;;;;;;;;;9.84;68.00;100359.03;5028883;28;20346;-84
2023/12/29 09:42:03;;;;;;;;;;;;;;;9.85;67.48;100360.75;5030871;28;20003;-83
2023/12/29 09:44:31;;;;;;;;;;;;;;;9.95;66.41;100361.47;5030381;28;19932;-83
2023/12/29 09:47:00;;;;;;;;;;;;;;;10.02;66.26;100348.28;5032195;28;19925;-84
2023/12/29 09:49:27;;;;;;;;;;;;;;;10.01;66.35;100356.19;5029010;28;19952;-84
2023/12/29 09:51:54;;;;;;;;;;;;;;;9.96;67.02;100361.47;5032308;28;19925;-84
2023/12/29 09:54:21;;;;;;;;;;;;;;;9.95;66.41;100357.13;5018741;28;19991;-84
2023/12/29 09:56:49;;;;;;;;;;;;;;;9.99;65.82;100364.03;5031507;28;20458;-84
2023/12/29 09:59:16;;;;;;;;;;;;;;;9.97;66.03;100352.72;5012627;28;19925;-85
2023/12/29 10:01:51;;;;;;;;;;;;;;;10.00;65.89;100352.66;4986746;28;20004;-83
2023/12/29 10:04:21;;;;;;;;;;;;;;;10.05;65.39;100350.84;5011285;28;20335;-83
2023/12/29 10:06:48;;;;;;;;;;;;;;;10.04;65.69;100346.50;5033408;28;19929;-83
2023/12/29 10:09:15;;;;;;;;;;;;;;;9.96;66.86;100357.97;5028068;28;19932;-84
2023/12/29 10:11:42;;;;;;;;;;;;;;;9.97;66.50;100349.25;5031992;28;20020;-84
2023/12/29 10:14:41;;;;;;;;;;;;;;;9.92;66.87;100347.53;5006559;28;19932;-88
2023/12/29 10:17:26;;;;;;;;;;;;;;;9.89;67.16;100347.59;4993576;28;19944;-85
2023/12/29 10:20:04;;;;;;;;;;;;;;;9.92;66.86;100341.41;5024042;28;19926;-84
2023/12/29 10:22:35;;;;;;;;;;;;;;;9.95;66.55;100349.25;5018210;28;19925;-84
2023/12/29 10:25:01;;;;;;;;;;;;;;;9.97;66.23;100350.09;5032973;28;19925;-84
2023/12/29 10:27:28;;;;;;;;;;;;;;;9.91;67.44;100347.56;5015050;28;20003;-84
2023/12/29 10:29:55;;;;;;;;;;;;;;;9.99;66.71;100343.06;5033264;28;19925;-85
2023/12/29 10:32:22;;;;;;;;;;;;;;;10.00;67.13;100354.44;5031736;28;20007;-84
2023/12/29 10:34:48;;;;;;;;;;;;;;;10.07;66.33;100351.69;5002712;28;19936;-83
2023/12/29 10:37:19;;;;;;;;;;;;;;;10.10;66.28;100354.28;5025307;28;19927;-83
2023/12/29 10:39:54;;;;;;;;;;;;;;;10.14;66.85;100359.47;5034574;28;19924;-84
2023/12/29 10:42:21;;;;;;;;;;;;;;;10.17;66.82;100341.94;5025814;28;19925;-84
2023/12/29 10:44:48;;;;;;;;;;;;;;;10.25;66.47;100334.84;5033463;28;19936;-85
2023/12/29 10:47:15;;;;;;;;;;;;;;;10.24;66.38;100340.97;5027634;28;19947;-84
2023/12/29 10:49:41;;;;;;;;;;;;;;;10.30;65.62;100332.13;5031546;28;19926;-84
2023/12/29 10:52:13;;;;;;;;;;;;;;;10.33;66.00;100328.59;5009504;28;20019;-84
2023/12/29 10:54:43;;;;;;;;;;;;;;;10.40;65.37;100333.75;5027201;28;19983;-86
2023/12/29 10:57:11;;;;;;;;;;;;;;;10.42;65.71;100331.97;5030479;28;19929;-84
2023/12/29 10:59:38;;;;;;;;;;;;;;;10.41;65.80;100327.63;5024229;28;19929;-89
2023/12/29 11:02:07;;;;;;;;;;;;;;;10.44;64.75;100314.44;5026535;28;19925;-85
2023/12/29 11:04:35;;;;;;;;;;;;;;;10.60;64.59;100325.56;5027264;28;19932;-86
2023/12/29 11:07:02;;;;;;;;;;;;;;;10.75;65.15;100315.69;5024064;28;19925;-85
2023/12/29 11:09:29;;;;;;;;;;;;;;;10.85;64.80;100305.84;5022417;28;19979;-85
2023/12/29 11:12:00;;;;;;;;;;;;;;;10.91;64.33;100303.16;5023898;28;20389;-85
2023/12/29 11:14:28;;;;;;;;;;;;;;;10.99;64.77;100314.34;5024657;28;19925;-85
2023/12/29 11:16:55;;;;;;;;;;;;;;;10.92;65.05;100307.47;5030634;28;20019;-84
2023/12/29 11:19:22;;;;;;;;;;;;;;;10.89;65.08;100312.78;5028014;28;19931;-84
2023/12/29 11:21:54;;;;;;;;;;;;;;;10.86;64.76;100304.97;5016245;28;20028;-84
2023/12/29 11:24:22;;;;;;;;;;;;;;;10.84;64.15;100322.53;5027406;28;19925;-84
2023/12/29 11:27:00;;;;;;;;;;;;;;;10.84;64.75;100304.16;5030755;28;19948;-87
2023/12/29 11:29:27;;;;;;;;;;;;;;;10.88;64.65;100304.06;5022318;28;19932;-86
2023/12/29 11:31:54;;;;;;;;;;;;;;;10.98;63.42;100307.38;5013901;28;19960;-84
2023/12/29 11:34:24;;;;;;;;;;;;;;;11.01;62.60;100304.69;5012369;28;19925;-85
2023/12/29 11:36:52;;;;;;;;;;;;;;;11.02;62.42;100303.81;5008446;28;19929;-85
2023/12/29 11:39:38;;;;;;;;;;;;;;;11.02;62.89;100301.19;5013914;28;19929;-84
2023/12/29 11:42:14;;;;;;;;;;;;;;;11.04;61.68;100303.78;5032254;28;19972;-85
2023/12/29 11:44:40;;;;;;;;;;;;;;;11.08;61.81;100310.69;5014361;28;19925;-85
2023/12/29 11:47:09;;;;;;;;;;;;;;;11.06;60.98;100301.97;5030118;28;19933;-85
2023/12/29 11:50:02;;;;;;;;;;;;;;;11.07;61.55;100293.22;5002421;28;19929;-86
2023/12/29 11:52:32;;;;;;;;;;;;;;;11.12;61.58;100289.59;5026689;28;19976;-86
2023/12/29 11:55:12;;;;;;;;;;;;;;;11.14;60.63;100294.84;5033242;28;19929;-85
2023/12/29 11:57:40;;;;;;;;;;;;;;;11.14;61.89;100290.44;5024420;28;19972;-85
2023/12/29 12:00:07;;;;;;;;;;;;;;;11.18;60.79;100287.75;5032422;28;19932;-86
2023/12/29 12:02:34;;;;;;;;;;;;;;;11.21;61.44;100292.94;5040801;28;19924;-85
2023/12/29 12:05:01;;;;;;;;;;;;;;;11.23;61.55;100278.88;5012715;28;19929;-84
2023/12/29 12:07:28;;;;;;;;;;;;;;;11.25;61.85;100282.34;5026587;28;19933;-86
2023/12/29 12:10:13;;;;;;;;;;;;;;;11.20;62.18;100288.59;5037677;28;19933;-85
2023/12/29 12:12:41;;;;;;;;;;;;;;;11.17;62.16;100286.03;5031691;28;20253;-86
2023/12/29 12:15:26;;;;;;;;;;;;;;;11.20;62.05;100278.09;5017381;28;19934;-90
2023/12/29 12:17:53;;;;;;;;;;;;;;;11.21;62.21;100287.66;5025417;28;19925;-84
2023/12/29 12:20:20;;;;;;;;;;;;;;;11.24;62.08;100274.47;5009160;28;20029;-84
2023/12/29 12:22:55;;;;;;;;;;;;;;;11.10;63.13;100278.25;5010173;28;19933;-85
2023/12/29 12:25:22;;;;;;;;;;;;;;;11.09;62.30;100266.03;5016227;28;19925;-85
2023/12/29 12:27:48;;;;;;;;;;;;;;;11.13;62.07;100269.44;5006940;28;19929;-85
2023/12/29 12:30:18;;;;;;;;;;;;;;;11.13;62.74;100278.19;5011115;28;19933;-86
2023/12/29 12:32:45;;;;;;;;;;;;;;;11.16;61.55;100272.00;5011872;28;19925;-86
2023/12/29 12:35:17;;;;;;;;;;;;;;;11.17;61.77;100268.50;5025652;28;19925;-84
2023/12/29 12:37:46;;;;;;;;;;;;;;;11.09;63.59;100270.41;5022552;28;19930;-85
2023/12/29 12:40:24;;;;;;;;;;;;;;;11.14;63.40;100253.66;5028887;28;19944;-84
2023/12/29 12:42:51;;;;;;;;;;;;;;;11.04;64.20;100265.25;5013518;28;20014;-84
2023/12/29 12:45:17;;;;;;;;;;;;;;;11.00;64.88;100263.56;5011530;28;20131;-85
2023/12/29 12:47:44;;;;;;;;;;;;;;;11.01;64.90;100252.19;5009142;28;19933;-87